createdAt,value
2023-02-05T00:01:29.190Z,218.45
2023-02-05T00:06:36.486Z,218.81
2023-02-05T00:11:43.699Z,219.42
2023-02-05T00:16:50.887Z,219.23
2023-02-05T00:21:58.129Z,219.19
2023-02-05T00:27:05.260Z,219.48
2023-02-05T00:32:12.504Z,219.20
2023-02-05T00:37:19.697Z,219.59
2023-02-05T00:42:26.825Z,219.91
2023-02-05T00:47:34.001Z,219.35
2023-02-05T00:52:41.240Z,220.13
2023-02-05T00:57:48.364Z,219.06
2023-02-05T01:02:55.569Z,218.78
2023-02-05T01:08:02.769Z,218.81
2023-02-05T01:13:09.948Z,218.23
2023-02-05T01:18:17.125Z,218.85
2023-02-05T01:23:24.341Z,219.19
2023-02-05T01:28:31.496Z,218.98
2023-02-05T01:33:38.684Z,219.34
2023-02-05T01:38:45.892Z,218.57
2023-02-05T01:43:53.026Z,218.41
2023-02-05T01:49:00.220Z,218.24
2023-02-05T01:54:07.449Z,217.91
2023-02-05T01:59:14.607Z,218.06
2023-02-05T02:04:21.871Z,218.73
2023-02-05T02:09:29.300Z,218.88
2023-02-05T02:14:36.455Z,219.19
2023-02-05T02:19:43.611Z,220.04
2023-02-05T02:24:50.853Z,220.37
2023-02-05T02:29:58.004Z,220.88
2023-02-05T02:35:05.182Z,221.03
2023-02-05T02:40:12.416Z,221.00
2023-02-05T02:45:19.584Z,221.15
2023-02-05T02:50:26.744Z,221.69
2023-02-05T02:55:34.155Z,221.82
2023-02-05T03:00:41.132Z,221.79
2023-02-05T03:05:48.307Z,222.30
2023-02-05T03:10:55.517Z,223.32
2023-02-05T03:16:02.714Z,223.78
2023-02-05T03:21:09.844Z,224.39
2023-02-05T03:26:17.055Z,224.98
2023-02-05T03:31:24.289Z,226.07
2023-02-05T03:36:31.408Z,227.62
2023-02-05T03:41:38.673Z,228.10
2023-02-05T03:46:45.770Z,228.18
2023-02-05T03:51:52.973Z,227.96
2023-02-05T03:57:00.158Z,227.84
2023-02-05T04:02:07.373Z,228.22
2023-02-05T04:07:14.544Z,227.99
2023-02-05T04:12:21.746Z,227.39
2023-02-05T04:17:29.016Z,227.74
2023-02-05T04:22:36.325Z,227.74
2023-02-05T04:27:43.611Z,227.65
2023-02-05T04:32:50.994Z,227.63
2023-02-05T04:37:58.199Z,227.57
2023-02-05T04:43:05.538Z,227.55
2023-02-05T04:48:12.711Z,227.58
2023-02-05T04:53:19.879Z,228.24
2023-02-05T04:58:27.093Z,228.88
2023-02-05T05:03:34.284Z,227.78
2023-02-05T05:08:41.580Z,226.93
2023-02-05T05:13:48.789Z,227.05
2023-02-05T05:18:55.993Z,227.58
2023-02-05T05:24:03.210Z,227.53
2023-02-05T05:29:10.441Z,228.19
2023-02-05T05:34:17.704Z,228.13
2023-02-05T05:39:24.904Z,227.15
2023-02-05T05:44:32.200Z,227.18
2023-02-05T05:49:39.449Z,227.34
2023-02-05T05:54:46.662Z,226.81
2023-02-05T05:59:53.920Z,227.10
2023-02-05T06:05:01.103Z,226.75
2023-02-05T06:10:08.391Z,226.47
2023-02-05T06:15:15.662Z,226.32
2023-02-05T06:20:22.882Z,226.61
2023-02-05T06:25:30.037Z,225.99
2023-02-05T06:30:37.425Z,224.58
2023-02-05T06:35:44.482Z,223.28
2023-02-05T06:40:51.678Z,223.17
2023-02-05T06:45:58.889Z,222.63
2023-02-05T06:51:06.084Z,222.24
2023-02-05T06:56:13.322Z,222.06
2023-02-05T07:01:20.524Z,222.03
2023-02-05T07:06:27.709Z,221.26
2023-02-05T07:11:34.904Z,220.87
2023-02-05T07:16:42.105Z,220.63
2023-02-05T07:21:49.263Z,221.21
2023-02-05T07:26:56.444Z,222.34
2023-02-05T07:32:03.776Z,222.51
2023-02-05T07:37:10.908Z,223.19
2023-02-05T07:42:18.110Z,223.40
2023-02-05T07:47:25.304Z,222.62
2023-02-05T07:52:32.472Z,222.59
2023-02-05T07:57:39.640Z,222.77
2023-02-05T08:02:46.847Z,222.79
2023-02-05T08:07:54.083Z,221.92
2023-02-05T08:13:01.272Z,220.82
2023-02-05T08:18:08.604Z,219.68
2023-02-05T08:23:15.789Z,219.79
2023-02-05T08:28:23.028Z,220.07
2023-02-05T08:33:30.244Z,220.58
2023-02-05T08:38:37.405Z,221.08
2023-02-05T08:43:44.593Z,220.90
2023-02-05T08:48:51.882Z,221.22
2023-02-05T08:53:59.078Z,220.86
2023-02-05T08:59:06.257Z,220.77
2023-02-05T09:04:13.576Z,220.97
2023-02-05T09:09:20.709Z,222.63
2023-02-05T09:14:27.925Z,223.20
2023-02-05T09:19:35.184Z,223.93
2023-02-05T09:24:42.366Z,223.89
2023-02-05T09:29:49.556Z,224.68
2023-02-05T09:34:56.767Z,224.85
2023-02-05T09:40:21.248Z,225.75
2023-02-05T09:45:11.082Z,226.21
2023-02-05T09:50:18.376Z,225.42
2023-02-05T09:55:25.472Z,226.66
2023-02-05T10:00:32.698Z,227.25
2023-02-05T10:05:39.941Z,228.94
2023-02-05T10:10:47.106Z,230.12
2023-02-05T10:15:54.392Z,231.65
2023-02-05T10:21:01.552Z,231.94
2023-02-05T10:26:08.790Z,233.28
2023-02-05T10:31:16.200Z,234.08
2023-02-05T10:36:23.296Z,235.64
2023-02-05T10:41:30.464Z,236.46
2023-02-05T10:46:37.796Z,237.01
2023-02-05T10:51:44.934Z,237.79
2023-02-05T10:56:52.109Z,238.47
2023-02-05T11:01:59.434Z,238.38
2023-02-05T11:07:06.498Z,239.44
2023-02-05T11:12:13.682Z,239.99
2023-02-05T11:17:20.929Z,239.93
2023-02-05T11:22:28.159Z,240.69
2023-02-05T11:27:35.324Z,240.27
2023-02-05T11:32:42.491Z,240.58
2023-02-05T11:37:49.696Z,240.86
2023-02-05T11:42:56.858Z,241.90
2023-02-05T11:48:04.068Z,241.87
2023-02-05T11:53:11.246Z,242.27
2023-02-05T11:58:22.308Z,242.32
2023-02-05T12:03:25.614Z,242.04
2023-02-05T12:08:32.910Z,241.97
2023-02-05T12:13:40.059Z,241.14
2023-02-05T12:18:47.641Z,241.62
2023-02-05T12:23:54.986Z,241.46
2023-02-05T12:29:02.299Z,240.99
2023-02-05T12:34:09.555Z,240.43
2023-02-05T12:39:16.800Z,241.92
2023-02-05T12:44:23.986Z,242.31
2023-02-05T12:49:31.223Z,242.77
2023-02-05T12:54:38.462Z,243.31
2023-02-05T12:59:45.828Z,243.97
2023-02-05T13:04:53.074Z,243.78
2023-02-05T13:10:01.444Z,243.73
2023-02-05T13:15:07.811Z,244.49
2023-02-05T13:20:15.365Z,244.70
2023-02-05T13:25:30.084Z,244.89
2023-02-05T13:30:30.665Z,245.34
2023-02-05T13:35:38.935Z,246.81
2023-02-05T13:40:46.444Z,247.68
2023-02-05T13:45:53.665Z,248.51
2023-02-05T13:51:01.334Z,248.39
2023-02-05T13:56:09.987Z,248.92
2023-02-05T14:01:17.920Z,248.93
2023-02-05T14:06:25.088Z,249.41
2023-02-05T14:11:32.499Z,249.44
2023-02-05T14:16:40.113Z,249.83
2023-02-05T14:21:47.439Z,249.93
2023-02-05T14:26:55.065Z,250.28
2023-02-05T14:32:02.646Z,250.60
2023-02-05T14:37:10.272Z,250.65
2023-02-05T14:42:17.754Z,250.82
2023-02-05T14:47:25.288Z,250.94
2023-02-05T14:52:32.906Z,251.57
2023-02-05T14:57:40.532Z,251.77
2023-02-05T15:02:47.860Z,251.62
2023-02-05T15:07:55.038Z,251.82
2023-02-05T15:13:02.345Z,251.37
2023-02-05T15:18:09.531Z,251.43
2023-02-05T15:23:16.750Z,251.96
2023-02-05T15:28:23.945Z,252.38
2023-02-05T15:33:31.122Z,252.04
2023-02-05T15:38:38.799Z,252.15
2023-02-05T15:43:46.150Z,251.96
2023-02-05T15:48:53.402Z,251.81
2023-02-05T15:54:00.565Z,251.87
2023-02-05T15:59:07.960Z,251.27
2023-02-05T16:04:15.247Z,251.27
2023-02-05T16:09:22.815Z,251.54
2023-02-05T16:14:30.453Z,252.09
2023-02-05T16:19:38.043Z,252.38
2023-02-05T16:24:45.762Z,252.22
2023-02-05T16:29:53.501Z,251.96
2023-02-05T16:35:01.095Z,251.91
2023-02-05T16:40:08.528Z,251.52
2023-02-05T16:45:16.112Z,251.20
2023-02-05T16:50:23.394Z,251.00
2023-02-05T16:55:30.836Z,250.80
2023-02-05T17:00:38.662Z,250.33
2023-02-05T17:05:45.952Z,249.82
2023-02-05T17:10:53.635Z,249.71
2023-02-05T17:16:01.365Z,249.32
2023-02-05T17:21:09.411Z,248.75
2023-02-05T17:26:16.835Z,249.03
2023-02-05T17:31:24.259Z,248.57
2023-02-05T17:36:31.602Z,248.66
2023-02-05T17:41:39.259Z,248.87
2023-02-05T17:46:46.625Z,249.01
2023-02-05T17:51:53.981Z,249.12
2023-02-05T17:57:03.005Z,248.77
2023-02-05T18:02:09.040Z,247.91
2023-02-05T18:07:16.518Z,247.47
2023-02-05T18:12:24.078Z,247.84
2023-02-05T18:17:31.876Z,248.02
2023-02-05T18:22:39.466Z,247.97
2023-02-05T18:27:47.099Z,248.53
2023-02-05T18:32:54.471Z,248.19
2023-02-05T18:38:01.996Z,247.75
2023-02-05T18:43:09.714Z,247.60
2023-02-05T18:48:17.351Z,247.19
2023-02-05T18:53:24.838Z,246.88
2023-02-05T18:58:32.466Z,247.40
2023-02-05T19:03:40.146Z,247.10
2023-02-05T19:08:47.591Z,247.36
2023-02-05T19:13:55.292Z,246.44
2023-02-05T19:19:03.087Z,246.37
2023-02-05T19:24:10.725Z,246.14
2023-02-05T19:29:18.339Z,244.96
2023-02-05T19:34:25.913Z,245.14
2023-02-05T19:39:33.275Z,245.54
2023-02-05T19:44:41.401Z,245.26
2023-02-05T19:49:48.607Z,245.15
2023-02-05T19:54:56.125Z,245.26
2023-02-05T20:00:03.741Z,244.79
2023-02-05T20:05:11.009Z,244.74
2023-02-05T20:10:18.550Z,244.55
2023-02-05T20:15:26.153Z,245.43
2023-02-05T20:20:34.152Z,246.44
2023-02-05T20:25:40.900Z,245.72
2023-02-05T20:30:48.524Z,245.40
2023-02-05T20:35:56.129Z,245.13
2023-02-05T20:41:03.717Z,244.87
2023-02-05T20:46:11.369Z,244.75
2023-02-05T20:51:18.978Z,243.61
2023-02-05T20:56:26.966Z,243.50
2023-02-05T21:01:34.578Z,242.40
2023-02-05T21:06:42.119Z,241.69
2023-02-05T21:11:50.316Z,240.98
2023-02-05T21:16:57.739Z,240.86
2023-02-05T21:22:05.382Z,239.08
2023-02-05T21:27:12.773Z,238.53
2023-02-05T21:32:20.036Z,237.39
2023-02-05T21:37:27.270Z,236.38
2023-02-05T21:42:34.482Z,236.37
2023-02-05T21:47:41.722Z,235.79
2023-02-05T21:52:49.013Z,234.76
2023-02-05T21:57:56.215Z,233.99
2023-02-05T22:03:03.437Z,233.84
2023-02-05T22:08:11.977Z,233.37
2023-02-05T22:13:17.820Z,232.84
2023-02-05T22:18:25.013Z,232.91
2023-02-05T22:23:32.245Z,232.46
2023-02-05T22:28:39.476Z,232.19
2023-02-05T22:33:46.628Z,231.40
2023-02-05T22:38:53.864Z,231.41
2023-02-05T22:44:01.103Z,231.52
2023-02-05T22:49:08.337Z,230.85
2023-02-05T22:54:15.562Z,231.42
2023-02-05T22:59:22.801Z,231.65
2023-02-05T23:04:30.019Z,232.39
2023-02-05T23:09:37.254Z,231.99
2023-02-05T23:14:44.458Z,231.97
2023-02-05T23:19:51.637Z,232.44
2023-02-05T23:24:58.844Z,233.14
2023-02-05T23:30:05.998Z,232.44
2023-02-05T23:35:13.199Z,231.89
2023-02-05T23:40:20.407Z,231.39
2023-02-05T23:45:27.657Z,230.59
2023-02-05T23:50:34.823Z,230.55
2023-02-05T23:55:42.031Z,230.16
